NPV1230 VVDN-RPLL
Flight info
| Callsign | NPV1230 |
|---|---|
| Flight time | 2h 3m |
| Altitude | 37000 |
| Route | CQ1A CQ W2 PCA L628 MESOX/N0461F370 L628 GUKUM DCT LUBAN LUBAN1A |
| Aircraft | A320/M-SDE3FGHIRWY/LB1 |
Departure
| Time | 2026-04-22 19:05 |
|---|---|
| Airport | Da Nang International Airport (VVDN) |
Arrival
| Time | 2026-04-22 21:09 |
|---|---|
| Airport | Ninoy Aquino International Airport (RPLL) |
| Time | Latitude | Longitude | Altitude | Speed | Heading |
|---|---|---|---|---|---|
| 2026-04-22 18:48 | 16.05111 | 108.20239 | 0 ft | 0 kts | 268° |
| 2026-04-22 19:01 | 16.05111 | 108.20219 | 32 ft | 6 kts | 268° |
| 2026-04-22 19:02 | 16.05124 | 108.20156 | 32 ft | 12 kts | 304° |
| 2026-04-22 19:02 | 16.05208 | 108.20119 | 32 ft | 13 kts | 351° |
| 2026-04-22 19:02 | 16.05292 | 108.20105 | 32 ft | 12 kts | 351° |
| 2026-04-22 19:02 | 16.05368 | 108.20093 | 32 ft | 10 kts | 351° |
| 2026-04-22 19:03 | 16.05439 | 108.20094 | 32 ft | 13 kts | 4° |
| 2026-04-22 19:03 | 16.05569 | 108.20080 | 32 ft | 24 kts | 351° |
| 2026-04-22 19:03 | 16.05740 | 108.20053 | 31 ft | 24 kts | 351° |
| 2026-04-22 19:03 | 16.05799 | 108.19998 | 31 ft | 10 kts | 250° |
| 2026-04-22 19:04 | 16.05761 | 108.19942 | 31 ft | 10 kts | 246° |
| 2026-04-22 19:04 | 16.05751 | 108.19854 | 30 ft | 12 kts | 236° |
| 2026-04-22 19:04 | 16.05661 | 108.19855 | 29 ft | 20 kts | 172° |
| 2026-04-22 19:04 | 16.05344 | 108.19900 | 32 ft | 77 kts | 172° |
| 2026-04-22 19:05 | 16.04604 | 108.20005 | 34 ft | 135 kts | 171° |
| 2026-04-22 19:05 | 16.03522 | 108.20166 | 91 ft | 174 kts | 170° |
| 2026-04-22 19:05 | 16.02346 | 108.20375 | 820 ft | 170 kts | 171° |
| 2026-04-22 19:05 | 16.01173 | 108.20573 | 1494 ft | 176 kts | 173° |
| 2026-04-22 19:06 | 15.99896 | 108.20778 | 1828 ft | 197 kts | 172° |
| 2026-04-22 19:06 | 15.98460 | 108.21007 | 2139 ft | 222 kts | 171° |
| 2026-04-22 19:06 | 15.96852 | 108.21269 | 2596 ft | 246 kts | 169° |
| 2026-04-22 19:07 | 15.93897 | 108.23289 | 3942 ft | 270 kts | 124° |
| 2026-04-22 19:07 | 15.93072 | 108.25065 | 4727 ft | 276 kts | 113° |
| 2026-04-22 19:07 | 15.92344 | 108.26921 | 5525 ft | 279 kts | 113° |
| 2026-04-22 19:07 | 15.91605 | 108.28804 | 6314 ft | 283 kts | 112° |
| 2026-04-22 19:08 | 15.90698 | 108.30624 | 7029 ft | 286 kts | 126° |
| 2026-04-22 19:08 | 15.89324 | 108.32128 | 7742 ft | 289 kts | 142° |
| 2026-04-22 19:08 | 15.87720 | 108.33408 | 8477 ft | 293 kts | 143° |
| 2026-04-22 19:08 | 15.86098 | 108.34706 | 9200 ft | 296 kts | 142° |
| 2026-04-22 19:09 | 15.84457 | 108.36025 | 9885 ft | 300 kts | 142° |
| 2026-04-22 19:09 | 15.82766 | 108.37386 | 10217 ft | 318 kts | 142° |
| 2026-04-22 19:09 | 15.81579 | 108.38341 | 10321 ft | 334 kts | 142° |
| 2026-04-22 19:09 | 15.79011 | 108.40402 | 10490 ft | 363 kts | 142° |
| 2026-04-22 19:10 | 15.76985 | 108.42030 | 10872 ft | 373 kts | 142° |
| 2026-04-22 19:10 | 15.74922 | 108.43691 | 11419 ft | 377 kts | 142° |
| 2026-04-22 19:10 | 15.72836 | 108.45368 | 12025 ft | 381 kts | 142° |
| 2026-04-22 19:10 | 15.70732 | 108.47060 | 12632 ft | 384 kts | 142° |
| 2026-04-22 19:11 | 15.68613 | 108.48763 | 13215 ft | 387 kts | 142° |
| 2026-04-22 19:11 | 15.66471 | 108.50482 | 13782 ft | 391 kts | 143° |
| 2026-04-22 19:11 | 15.64343 | 108.52188 | 14290 ft | 394 kts | 143° |
| 2026-04-22 19:11 | 15.62165 | 108.53934 | 14791 ft | 397 kts | 142° |
| 2026-04-22 19:12 | 15.59972 | 108.55688 | 15289 ft | 400 kts | 143° |
| 2026-04-22 19:12 | 15.57756 | 108.57447 | 15784 ft | 402 kts | 143° |
| 2026-04-22 19:12 | 15.55523 | 108.59209 | 16268 ft | 405 kts | 143° |
| 2026-04-22 19:12 | 15.53265 | 108.60980 | 16743 ft | 408 kts | 143° |
| 2026-04-22 19:13 | 15.50996 | 108.62758 | 17211 ft | 410 kts | 143° |
| 2026-04-22 19:13 | 15.48710 | 108.64554 | 17666 ft | 413 kts | 143° |
| 2026-04-22 19:13 | 15.46414 | 108.66357 | 18099 ft | 416 kts | 142° |
| 2026-04-22 19:13 | 15.44100 | 108.68175 | 18480 ft | 418 kts | 143° |
| 2026-04-22 19:14 | 15.41641 | 108.69794 | 18859 ft | 421 kts | 153° |
| 2026-04-22 19:14 | 15.38928 | 108.70942 | 19255 ft | 423 kts | 163° |
| 2026-04-22 19:14 | 15.37034 | 108.71434 | 19506 ft | 424 kts | 167° |
| 2026-04-22 19:14 | 15.34144 | 108.72102 | 19896 ft | 426 kts | 167° |
| 2026-04-22 19:15 | 15.32182 | 108.72560 | 20157 ft | 428 kts | 166° |
| 2026-04-22 19:15 | 15.28326 | 108.73467 | 20665 ft | 431 kts | 166° |
| 2026-04-22 19:15 | 15.25396 | 108.74154 | 21047 ft | 433 kts | 166° |
| 2026-04-22 19:15 | 15.22452 | 108.74841 | 21423 ft | 435 kts | 166° |
| 2026-04-22 19:16 | 15.19496 | 108.75530 | 21808 ft | 437 kts | 166° |
| 2026-04-22 19:16 | 15.16524 | 108.76227 | 22173 ft | 439 kts | 166° |
| 2026-04-22 19:16 | 15.13536 | 108.76925 | 22538 ft | 441 kts | 166° |
| 2026-04-22 19:16 | 15.10538 | 108.77626 | 22879 ft | 443 kts | 166° |
| 2026-04-22 19:17 | 15.07522 | 108.78331 | 23228 ft | 445 kts | 166° |
| 2026-04-22 19:17 | 15.04492 | 108.79038 | 23537 ft | 447 kts | 166° |
| 2026-04-22 19:17 | 15.01449 | 108.79749 | 23808 ft | 449 kts | 166° |
| 2026-04-22 19:17 | 14.98393 | 108.80465 | 24090 ft | 451 kts | 166° |
| 2026-04-22 19:18 | 14.95323 | 108.81183 | 24366 ft | 453 kts | 166° |
| 2026-04-22 19:18 | 14.92240 | 108.81901 | 24626 ft | 455 kts | 166° |
| 2026-04-22 19:18 | 14.89146 | 108.82620 | 24889 ft | 457 kts | 166° |
| 2026-04-22 19:18 | 14.86039 | 108.83340 | 25142 ft | 458 kts | 166° |
| 2026-04-22 19:19 | 14.82920 | 108.84063 | 25419 ft | 460 kts | 166° |
| 2026-04-22 19:19 | 14.79788 | 108.84790 | 25688 ft | 462 kts | 166° |
| 2026-04-22 19:19 | 14.76643 | 108.85520 | 25957 ft | 464 kts | 166° |
| 2026-04-22 19:19 | 14.73485 | 108.86254 | 26205 ft | 466 kts | 166° |
| 2026-04-22 19:20 | 14.70316 | 108.86991 | 26462 ft | 468 kts | 165° |
| 2026-04-22 19:20 | 14.67138 | 108.87733 | 26688 ft | 470 kts | 166° |
| 2026-04-22 19:20 | 14.63941 | 108.88478 | 26906 ft | 472 kts | 165° |
| 2026-04-22 19:20 | 14.60733 | 108.89222 | 27144 ft | 473 kts | 166° |
| 2026-04-22 19:21 | 14.57517 | 108.89966 | 27391 ft | 475 kts | 166° |
| 2026-04-22 19:21 | 14.54280 | 108.90717 | 27627 ft | 477 kts | 165° |
| 2026-04-22 19:21 | 14.51036 | 108.91471 | 27859 ft | 479 kts | 165° |
| 2026-04-22 19:21 | 14.47781 | 108.92226 | 28087 ft | 481 kts | 165° |
| 2026-04-22 19:22 | 14.44518 | 108.92981 | 28396 ft | 480 kts | 165° |
| 2026-04-22 19:22 | 14.41262 | 108.93737 | 28738 ft | 480 kts | 165° |
| 2026-04-22 19:22 | 14.38008 | 108.94493 | 29072 ft | 479 kts | 165° |
| 2026-04-22 19:22 | 14.34757 | 108.95250 | 29405 ft | 478 kts | 165° |
| 2026-04-22 19:23 | 14.31511 | 108.96003 | 29748 ft | 478 kts | 165° |
| 2026-04-22 19:23 | 14.28268 | 108.96753 | 30059 ft | 477 kts | 165° |
| 2026-04-22 19:23 | 14.25025 | 108.97498 | 30337 ft | 477 kts | 165° |
| 2026-04-22 19:23 | 14.21787 | 108.98243 | 30628 ft | 477 kts | 165° |
| 2026-04-22 19:24 | 14.18553 | 108.98988 | 30907 ft | 476 kts | 165° |
| 2026-04-22 19:24 | 14.15325 | 108.99735 | 31188 ft | 476 kts | 165° |
| 2026-04-22 19:24 | 14.12094 | 109.00486 | 31460 ft | 476 kts | 165° |
| 2026-04-22 19:24 | 14.08867 | 109.01236 | 31750 ft | 475 kts | 165° |
| 2026-04-22 19:25 | 14.05653 | 109.01997 | 32057 ft | 474 kts | 162° |
| 2026-04-22 19:25 | 14.02615 | 109.03247 | 32333 ft | 468 kts | 148° |
| 2026-04-22 19:25 | 13.99997 | 109.05205 | 32609 ft | 463 kts | 134° |
| 2026-04-22 19:25 | 13.97949 | 109.07729 | 32892 ft | 458 kts | 120° |
| 2026-04-22 19:26 | 13.96570 | 109.10656 | 33170 ft | 454 kts | 106° |
| 2026-04-22 19:26 | 13.95909 | 109.13812 | 33458 ft | 450 kts | 93° |
| 2026-04-22 19:26 | 13.95868 | 109.17019 | 33741 ft | 448 kts | 88° |
| 2026-04-22 19:26 | 13.95911 | 109.20226 | 34017 ft | 447 kts | 88° |
| 2026-04-22 19:27 | 13.95951 | 109.23429 | 34277 ft | 447 kts | 88° |
| 2026-04-22 19:27 | 13.95990 | 109.26626 | 34504 ft | 447 kts | 88° |
| 2026-04-22 19:27 | 13.96027 | 109.29828 | 34725 ft | 448 kts | 88° |
| 2026-04-22 19:28 | 13.96094 | 109.36267 | 34830 ft | 452 kts | 88° |
| 2026-04-22 19:28 | 13.96153 | 109.42742 | 34831 ft | 453 kts | 88° |
| 2026-04-22 19:29 | 13.96218 | 109.49181 | 34832 ft | 453 kts | 88° |
| 2026-04-22 19:29 | 13.96283 | 109.55660 | 34833 ft | 453 kts | 88° |
| 2026-04-22 19:30 | 13.96333 | 109.61090 | 34833 ft | 452 kts | 88° |
| 2026-04-22 19:30 | 13.96401 | 109.68623 | 34833 ft | 453 kts | 88° |
| 2026-04-22 19:31 | 13.96460 | 109.75098 | 34836 ft | 452 kts | 88° |
| 2026-04-22 19:31 | 13.96518 | 109.81583 | 34842 ft | 452 kts | 88° |
| 2026-04-22 19:32 | 13.96574 | 109.87966 | 34842 ft | 452 kts | 88° |
| 2026-04-22 19:32 | 13.96624 | 109.94438 | 34847 ft | 452 kts | 88° |
| 2026-04-22 19:33 | 13.96677 | 110.00907 | 34846 ft | 452 kts | 88° |
| 2026-04-22 19:33 | 13.96745 | 110.07332 | 34844 ft | 451 kts | 88° |
| 2026-04-22 19:34 | 13.96819 | 110.13838 | 34846 ft | 452 kts | 88° |
| 2026-04-22 19:34 | 13.96884 | 110.20308 | 34846 ft | 452 kts | 88° |
| 2026-04-22 19:35 | 13.96937 | 110.26735 | 34848 ft | 452 kts | 88° |
| 2026-04-22 19:35 | 13.97002 | 110.33205 | 34847 ft | 452 kts | 88° |
| 2026-04-22 19:36 | 13.97063 | 110.39679 | 34849 ft | 452 kts | 88° |
| 2026-04-22 19:36 | 13.97124 | 110.46148 | 34849 ft | 452 kts | 88° |
| 2026-04-22 19:37 | 13.97182 | 110.52617 | 34849 ft | 452 kts | 88° |
| 2026-04-22 19:37 | 13.97236 | 110.59091 | 34849 ft | 452 kts | 88° |
| 2026-04-22 19:38 | 13.97287 | 110.65564 | 34849 ft | 452 kts | 88° |
| 2026-04-22 19:38 | 13.97332 | 110.72042 | 34855 ft | 452 kts | 88° |
| 2026-04-22 19:39 | 13.97381 | 110.78514 | 34853 ft | 452 kts | 88° |
| 2026-04-22 19:39 | 13.97440 | 110.84990 | 34852 ft | 452 kts | 88° |
| 2026-04-22 19:40 | 13.97490 | 110.91466 | 34852 ft | 452 kts | 88° |
| 2026-04-22 19:40 | 13.97532 | 110.97898 | 34854 ft | 452 kts | 88° |
| 2026-04-22 19:41 | 13.97569 | 111.04374 | 34851 ft | 452 kts | 88° |
| 2026-04-22 19:41 | 13.97604 | 111.10848 | 34851 ft | 452 kts | 88° |
| 2026-04-22 19:42 | 13.97648 | 111.17325 | 34850 ft | 452 kts | 88° |
| 2026-04-22 19:42 | 13.97692 | 111.23800 | 34848 ft | 452 kts | 89° |
| 2026-04-22 19:43 | 13.97747 | 111.33511 | 34841 ft | 452 kts | 89° |
| 2026-04-22 19:43 | 13.97784 | 111.39981 | 34841 ft | 452 kts | 88° |
| 2026-04-22 19:44 | 13.97815 | 111.46466 | 34839 ft | 453 kts | 89° |
| 2026-04-22 19:44 | 13.97838 | 111.52947 | 34842 ft | 453 kts | 89° |
| 2026-04-22 19:45 | 13.97864 | 111.59428 | 34839 ft | 453 kts | 89° |
| 2026-04-22 19:45 | 13.97884 | 111.65875 | 34837 ft | 453 kts | 89° |
| 2026-04-22 19:46 | 13.97910 | 111.72371 | 34840 ft | 454 kts | 89° |
| 2026-04-22 19:46 | 13.97941 | 111.78868 | 34840 ft | 454 kts | 89° |
| 2026-04-22 19:47 | 13.97962 | 111.85375 | 34839 ft | 454 kts | 89° |
| 2026-04-22 19:47 | 13.97972 | 111.91877 | 34847 ft | 454 kts | 89° |
| 2026-04-22 19:48 | 13.97989 | 111.98383 | 34848 ft | 454 kts | 89° |
| 2026-04-22 19:48 | 13.98003 | 112.04891 | 34846 ft | 455 kts | 89° |
| 2026-04-22 19:49 | 13.98017 | 112.11397 | 34848 ft | 455 kts | 89° |
| 2026-04-22 19:49 | 13.98031 | 112.17910 | 34846 ft | 455 kts | 89° |
| 2026-04-22 19:50 | 13.98035 | 112.24379 | 34848 ft | 455 kts | 89° |
| 2026-04-22 19:50 | 13.98037 | 112.30896 | 34848 ft | 455 kts | 89° |
| 2026-04-22 19:51 | 13.98043 | 112.37407 | 34848 ft | 455 kts | 89° |
| 2026-04-22 19:51 | 13.98051 | 112.43927 | 34845 ft | 455 kts | 89° |
| 2026-04-22 19:52 | 13.98054 | 112.50447 | 34845 ft | 455 kts | 89° |
| 2026-04-22 19:52 | 13.98052 | 112.56972 | 34845 ft | 455 kts | 89° |
| 2026-04-22 19:53 | 13.98052 | 112.63496 | 34844 ft | 456 kts | 89° |
| 2026-04-22 19:53 | 13.98051 | 112.70017 | 34844 ft | 456 kts | 89° |
| 2026-04-22 19:54 | 13.98052 | 112.76544 | 34845 ft | 456 kts | 89° |
| 2026-04-22 19:54 | 13.98043 | 112.83074 | 34845 ft | 456 kts | 89° |
| 2026-04-22 19:55 | 13.98026 | 112.89601 | 34849 ft | 456 kts | 89° |
| 2026-04-22 19:55 | 13.98011 | 112.96134 | 34848 ft | 456 kts | 89° |
| 2026-04-22 19:56 | 13.97999 | 113.02670 | 34847 ft | 456 kts | 89° |
| 2026-04-22 19:56 | 13.97993 | 113.09162 | 34847 ft | 457 kts | 89° |
| 2026-04-22 19:57 | 13.97985 | 113.15704 | 34844 ft | 457 kts | 89° |
| 2026-04-22 19:57 | 13.97965 | 113.22244 | 34846 ft | 457 kts | 89° |
| 2026-04-22 19:58 | 13.97945 | 113.28785 | 34847 ft | 457 kts | 89° |
| 2026-04-22 19:58 | 13.97925 | 113.35327 | 34848 ft | 457 kts | 89° |
| 2026-04-22 20:00 | 13.97840 | 113.58255 | 34845 ft | 458 kts | 89° |
| 2026-04-22 20:01 | 13.97821 | 113.63708 | 34849 ft | 458 kts | 89° |
| 2026-04-22 20:01 | 13.97793 | 113.70262 | 34851 ft | 458 kts | 89° |
| 2026-04-22 20:02 | 13.97759 | 113.76817 | 34851 ft | 458 kts | 89° |
| 2026-04-22 20:02 | 13.97728 | 113.83381 | 34846 ft | 458 kts | 89° |
| 2026-04-22 20:03 | 13.97695 | 113.89942 | 34848 ft | 458 kts | 89° |
| 2026-04-22 20:03 | 13.97661 | 113.96512 | 34850 ft | 458 kts | 89° |
| 2026-04-22 20:04 | 13.97626 | 114.03075 | 34850 ft | 458 kts | 90° |
| 2026-04-22 20:04 | 13.97583 | 114.09639 | 34851 ft | 458 kts | 90° |
| 2026-04-22 20:05 | 13.97539 | 114.16160 | 34852 ft | 459 kts | 90° |
| 2026-04-22 20:05 | 13.97494 | 114.22728 | 34850 ft | 459 kts | 89° |
| 2026-04-22 20:06 | 13.97449 | 114.29301 | 34852 ft | 459 kts | 89° |
| 2026-04-22 20:06 | 13.97404 | 114.35868 | 34848 ft | 459 kts | 90° |
| 2026-04-22 20:07 | 13.97353 | 114.42445 | 34853 ft | 459 kts | 90° |
| 2026-04-22 20:07 | 13.97716 | 114.49000 | 34847 ft | 458 kts | 83° |
| 2026-04-22 20:08 | 13.98341 | 114.55541 | 34851 ft | 459 kts | 83° |
| 2026-04-22 20:08 | 13.98954 | 114.62082 | 34846 ft | 459 kts | 84° |
| 2026-04-22 20:09 | 13.99577 | 114.68630 | 34853 ft | 460 kts | 83° |
| 2026-04-22 20:09 | 14.00194 | 114.75140 | 34850 ft | 460 kts | 84° |
| 2026-04-22 20:10 | 14.00807 | 114.81738 | 34851 ft | 460 kts | 84° |
| 2026-04-22 20:10 | 14.01421 | 114.88305 | 34854 ft | 461 kts | 84° |
| 2026-04-22 20:11 | 14.02028 | 114.94835 | 34853 ft | 461 kts | 84° |
| 2026-04-22 20:11 | 14.02638 | 115.01412 | 34854 ft | 461 kts | 84° |
| 2026-04-22 20:12 | 14.03249 | 115.07988 | 34856 ft | 462 kts | 84° |
| 2026-04-22 20:12 | 14.03859 | 115.14572 | 34853 ft | 462 kts | 84° |
| 2026-04-22 20:13 | 14.04471 | 115.21159 | 34861 ft | 462 kts | 84° |
| 2026-04-22 20:13 | 14.05073 | 115.27748 | 34858 ft | 462 kts | 84° |
| 2026-04-22 20:14 | 14.05680 | 115.34339 | 34863 ft | 462 kts | 84° |
| 2026-04-22 20:14 | 14.06282 | 115.40929 | 34859 ft | 462 kts | 84° |
| 2026-04-22 20:15 | 14.06875 | 115.47528 | 34868 ft | 463 kts | 84° |
| 2026-04-22 20:15 | 14.07478 | 115.54123 | 34862 ft | 463 kts | 84° |
| 2026-04-22 20:16 | 14.08081 | 115.60729 | 34859 ft | 463 kts | 84° |
| 2026-04-22 20:16 | 14.08672 | 115.67337 | 34857 ft | 463 kts | 84° |
| 2026-04-22 20:17 | 14.09264 | 115.73946 | 34863 ft | 463 kts | 84° |
| 2026-04-22 20:17 | 14.09865 | 115.80555 | 34861 ft | 464 kts | 84° |
| 2026-04-22 20:18 | 14.10455 | 115.87125 | 34864 ft | 464 kts | 84° |
| 2026-04-22 20:18 | 14.11033 | 115.93742 | 34864 ft | 464 kts | 84° |
| 2026-04-22 20:19 | 14.11612 | 116.00363 | 34872 ft | 464 kts | 84° |
| 2026-04-22 20:19 | 14.12206 | 116.06995 | 34872 ft | 464 kts | 84° |
| 2026-04-22 20:20 | 14.12799 | 116.13621 | 34875 ft | 465 kts | 84° |
| 2026-04-22 20:20 | 14.13384 | 116.20259 | 34878 ft | 465 kts | 84° |
| 2026-04-22 20:21 | 14.13962 | 116.26902 | 34881 ft | 466 kts | 84° |
| 2026-04-22 20:21 | 14.14545 | 116.33543 | 34884 ft | 466 kts | 84° |
| 2026-04-22 20:22 | 14.15128 | 116.40192 | 34879 ft | 466 kts | 84° |
| 2026-04-22 20:22 | 14.15706 | 116.46851 | 34881 ft | 466 kts | 84° |
| 2026-04-22 20:23 | 14.16269 | 116.53468 | 34880 ft | 466 kts | 84° |
| 2026-04-22 20:23 | 14.16844 | 116.60124 | 34882 ft | 467 kts | 84° |
| 2026-04-22 20:24 | 14.17423 | 116.66791 | 34878 ft | 467 kts | 84° |
| 2026-04-22 20:24 | 14.18004 | 116.73464 | 34882 ft | 467 kts | 84° |
| 2026-04-22 20:25 | 14.18574 | 116.80137 | 34885 ft | 468 kts | 84° |
| 2026-04-22 20:25 | 14.19141 | 116.86813 | 34891 ft | 468 kts | 84° |
| 2026-04-22 20:26 | 14.19382 | 116.93503 | 34893 ft | 468 kts | 95° |
| 2026-04-22 20:26 | 14.18709 | 117.00180 | 34889 ft | 469 kts | 95° |
| 2026-04-22 20:27 | 14.18034 | 117.06862 | 34888 ft | 469 kts | 95° |
| 2026-04-22 20:27 | 14.17361 | 117.13502 | 34887 ft | 469 kts | 96° |
| 2026-04-22 20:28 | 14.16681 | 117.20184 | 34886 ft | 469 kts | 96° |
| 2026-04-22 20:28 | 14.16006 | 117.26863 | 34888 ft | 468 kts | 95° |
| 2026-04-22 20:29 | 14.15327 | 117.33539 | 34886 ft | 468 kts | 96° |
| 2026-04-22 20:29 | 14.14646 | 117.40214 | 34892 ft | 468 kts | 96° |
| 2026-04-22 20:30 | 14.13960 | 117.46890 | 34886 ft | 468 kts | 96° |
| 2026-04-22 20:30 | 14.13279 | 117.53517 | 34881 ft | 468 kts | 96° |
| 2026-04-22 20:31 | 14.12588 | 117.60191 | 34890 ft | 468 kts | 96° |
| 2026-04-22 20:31 | 14.11895 | 117.66864 | 34894 ft | 469 kts | 96° |
| 2026-04-22 20:32 | 14.11203 | 117.73541 | 34895 ft | 469 kts | 96° |
| 2026-04-22 20:32 | 14.10511 | 117.80213 | 34892 ft | 469 kts | 96° |
| 2026-04-22 20:33 | 14.09809 | 117.86889 | 34895 ft | 468 kts | 96° |
| 2026-04-22 20:33 | 14.09112 | 117.93564 | 34886 ft | 468 kts | 96° |
| 2026-04-22 20:34 | 14.08417 | 118.00242 | 34888 ft | 469 kts | 96° |
| 2026-04-22 20:34 | 14.07722 | 118.06914 | 34887 ft | 469 kts | 96° |
| 2026-04-22 20:35 | 14.07015 | 118.13594 | 34892 ft | 469 kts | 96° |
| 2026-04-22 20:35 | 14.06306 | 118.20274 | 34896 ft | 469 kts | 96° |
| 2026-04-22 20:36 | 14.05601 | 118.26952 | 34898 ft | 469 kts | 96° |
| 2026-04-22 20:36 | 14.04895 | 118.33625 | 34892 ft | 469 kts | 96° |
| 2026-04-22 20:37 | 14.04184 | 118.40257 | 34891 ft | 469 kts | 96° |
| 2026-04-22 20:37 | 14.03471 | 118.46935 | 34889 ft | 469 kts | 96° |
| 2026-04-22 20:38 | 14.02765 | 118.53610 | 34887 ft | 469 kts | 96° |
| 2026-04-22 20:38 | 14.02053 | 118.60285 | 34887 ft | 469 kts | 96° |
| 2026-04-22 20:39 | 14.01337 | 118.66957 | 34889 ft | 469 kts | 96° |
| 2026-04-22 20:39 | 14.00610 | 118.73634 | 34886 ft | 469 kts | 96° |
| 2026-04-22 20:40 | 13.99884 | 118.80312 | 34889 ft | 469 kts | 96° |
| 2026-04-22 20:40 | 13.99157 | 118.86994 | 34885 ft | 469 kts | 96° |
| 2026-04-22 20:41 | 13.98436 | 118.93625 | 34891 ft | 469 kts | 96° |
| 2026-04-22 20:41 | 13.97709 | 119.00342 | 34890 ft | 469 kts | 96° |
| 2026-04-22 20:42 | 13.96981 | 119.07015 | 34895 ft | 469 kts | 96° |
| 2026-04-22 20:42 | 13.96250 | 119.13691 | 34892 ft | 469 kts | 96° |
| 2026-04-22 20:43 | 13.95526 | 119.20321 | 34888 ft | 469 kts | 96° |
| 2026-04-22 20:43 | 13.94792 | 119.26997 | 34891 ft | 469 kts | 96° |
| 2026-04-22 20:44 | 13.94054 | 119.33670 | 34893 ft | 469 kts | 96° |
| 2026-04-22 20:44 | 13.93313 | 119.40347 | 34892 ft | 469 kts | 96° |
| 2026-04-22 20:45 | 13.92575 | 119.47024 | 34888 ft | 469 kts | 96° |
| 2026-04-22 20:45 | 13.91834 | 119.53696 | 34892 ft | 469 kts | 96° |
| 2026-04-22 20:46 | 13.90710 | 119.63711 | 34889 ft | 470 kts | 96° |
| 2026-04-22 20:46 | 13.89963 | 119.70392 | 34888 ft | 470 kts | 96° |
| 2026-04-22 20:47 | 13.89208 | 119.77073 | 34889 ft | 470 kts | 96° |
| 2026-04-22 20:47 | 13.88455 | 119.83761 | 34888 ft | 470 kts | 96° |
| 2026-04-22 20:48 | 13.87833 | 119.89316 | 34886 ft | 471 kts | 96° |
| 2026-04-22 20:48 | 13.87083 | 119.96007 | 34895 ft | 470 kts | 96° |
| 2026-04-22 20:49 | 13.86325 | 120.02688 | 34892 ft | 470 kts | 96° |
| 2026-04-22 20:49 | 13.86189 | 120.06070 | 34305 ft | 475 kts | 86° |
| 2026-04-22 20:49 | 13.86636 | 120.09433 | 33589 ft | 474 kts | 76° |
| 2026-04-22 20:50 | 13.87628 | 120.12658 | 32829 ft | 472 kts | 66° |
| 2026-04-22 20:50 | 13.89104 | 120.15672 | 32087 ft | 472 kts | 57° |
| 2026-04-22 20:50 | 13.90991 | 120.18447 | 31367 ft | 474 kts | 53° |
| 2026-04-22 20:50 | 13.92960 | 120.21187 | 30665 ft | 478 kts | 53° |
| 2026-04-22 20:51 | 13.94938 | 120.23949 | 29977 ft | 480 kts | 53° |
| 2026-04-22 20:51 | 13.96926 | 120.26724 | 29184 ft | 483 kts | 53° |
| 2026-04-22 20:51 | 13.98924 | 120.29514 | 28421 ft | 486 kts | 53° |
| 2026-04-22 20:51 | 14.00936 | 120.32321 | 27656 ft | 488 kts | 53° |
| 2026-04-22 20:52 | 14.02953 | 120.35138 | 26920 ft | 490 kts | 53° |
| 2026-04-22 20:52 | 14.04982 | 120.37970 | 26200 ft | 491 kts | 53° |
| 2026-04-22 20:52 | 14.06999 | 120.40785 | 25500 ft | 487 kts | 53° |
| 2026-04-22 20:52 | 14.09001 | 120.43583 | 24821 ft | 483 kts | 53° |
| 2026-04-22 20:53 | 14.10984 | 120.46353 | 24160 ft | 479 kts | 53° |
| 2026-04-22 20:53 | 14.12953 | 120.49104 | 23506 ft | 475 kts | 52° |
| 2026-04-22 20:53 | 14.14904 | 120.51828 | 22746 ft | 470 kts | 53° |
| 2026-04-22 20:53 | 14.16837 | 120.54531 | 21995 ft | 466 kts | 53° |
| 2026-04-22 20:54 | 14.18752 | 120.57212 | 21252 ft | 463 kts | 53° |
| 2026-04-22 20:54 | 14.20651 | 120.59870 | 20543 ft | 459 kts | 53° |
| 2026-04-22 20:54 | 14.22536 | 120.62512 | 19847 ft | 456 kts | 53° |
| 2026-04-22 20:54 | 14.24380 | 120.65099 | 19170 ft | 453 kts | 53° |
| 2026-04-22 20:55 | 14.26240 | 120.67707 | 18499 ft | 449 kts | 53° |
| 2026-04-22 20:55 | 14.28085 | 120.70293 | 17789 ft | 446 kts | 53° |
| 2026-04-22 20:55 | 14.29914 | 120.72856 | 17036 ft | 442 kts | 53° |
| 2026-04-22 20:55 | 14.31730 | 120.75401 | 16288 ft | 439 kts | 53° |
| 2026-04-22 20:56 | 14.33531 | 120.77922 | 15580 ft | 435 kts | 53° |
| 2026-04-22 20:56 | 14.35318 | 120.80426 | 14883 ft | 431 kts | 53° |
| 2026-04-22 20:56 | 14.37086 | 120.82904 | 14199 ft | 427 kts | 53° |
| 2026-04-22 20:56 | 14.38835 | 120.85360 | 13503 ft | 423 kts | 53° |
| 2026-04-22 20:57 | 14.40566 | 120.87793 | 12749 ft | 418 kts | 54° |
| 2026-04-22 20:57 | 14.42279 | 120.90199 | 12002 ft | 414 kts | 54° |
| 2026-04-22 20:57 | 14.43973 | 120.92577 | 11272 ft | 409 kts | 54° |
| 2026-04-22 20:57 | 14.45647 | 120.94929 | 10570 ft | 404 kts | 54° |
| 2026-04-22 20:58 | 14.47300 | 120.97253 | 9879 ft | 400 kts | 54° |
| 2026-04-22 20:58 | 14.48936 | 120.99551 | 9149 ft | 396 kts | 54° |
| 2026-04-22 20:58 | 14.50538 | 121.01799 | 8850 ft | 380 kts | 53° |
| 2026-04-22 20:58 | 14.52350 | 121.03694 | 8599 ft | 365 kts | 36° |
| 2026-04-22 20:59 | 14.54599 | 121.04768 | 8354 ft | 352 kts | 14° |
| 2026-04-22 20:59 | 14.56991 | 121.04905 | 8113 ft | 339 kts | 352° |
| 2026-04-22 20:59 | 14.59146 | 121.04121 | 7865 ft | 323 kts | 329° |
| 2026-04-22 20:59 | 14.60733 | 121.02587 | 7631 ft | 308 kts | 304° |
| 2026-04-22 21:00 | 14.61606 | 121.00628 | 7384 ft | 295 kts | 289° |
| 2026-04-22 21:00 | 14.62236 | 120.98659 | 7141 ft | 282 kts | 288° |
| 2026-04-22 21:00 | 14.62823 | 120.96765 | 6813 ft | 274 kts | 290° |
| 2026-04-22 21:00 | 14.63725 | 120.95078 | 6446 ft | 266 kts | 308° |
| 2026-04-22 21:01 | 14.64865 | 120.93599 | 6067 ft | 260 kts | 310° |
| 2026-04-22 21:01 | 14.66013 | 120.92171 | 5690 ft | 256 kts | 311° |
| 2026-04-22 21:01 | 14.67154 | 120.90773 | 5292 ft | 253 kts | 311° |
| 2026-04-22 21:01 | 14.68273 | 120.89413 | 4898 ft | 250 kts | 311° |
| 2026-04-22 21:02 | 14.69396 | 120.88058 | 4463 ft | 247 kts | 311° |
| 2026-04-22 21:02 | 14.70290 | 120.86581 | 3995 ft | 243 kts | 286° |
| 2026-04-22 21:02 | 14.70354 | 120.84872 | 3538 ft | 239 kts | 254° |
| 2026-04-22 21:02 | 14.69543 | 120.83433 | 3208 ft | 229 kts | 220° |
| 2026-04-22 21:03 | 14.68173 | 120.82734 | 2959 ft | 217 kts | 186° |
| 2026-04-22 21:03 | 14.66754 | 120.82953 | 2739 ft | 201 kts | 151° |
| 2026-04-22 21:03 | 14.65786 | 120.83901 | 2497 ft | 188 kts | 123° |
| 2026-04-22 21:03 | 14.65144 | 120.85035 | 2299 ft | 179 kts | 118° |
| 2026-04-22 21:04 | 14.64546 | 120.86124 | 2169 ft | 170 kts | 124° |
| 2026-04-22 21:04 | 14.63793 | 120.87032 | 2044 ft | 163 kts | 135° |
| 2026-04-22 21:04 | 14.62973 | 120.87807 | 1917 ft | 158 kts | 137° |
| 2026-04-22 21:04 | 14.62165 | 120.88534 | 1829 ft | 151 kts | 138° |
| 2026-04-22 21:05 | 14.61454 | 120.89322 | 1769 ft | 149 kts | 126° |
| 2026-04-22 21:05 | 14.60871 | 120.90174 | 1714 ft | 143 kts | 123° |
| 2026-04-22 21:05 | 14.60320 | 120.91018 | 1712 ft | 142 kts | 126° |
| 2026-04-22 21:05 | 14.59680 | 120.91792 | 1710 ft | 142 kts | 133° |
| 2026-04-22 21:06 | 14.58952 | 120.92480 | 1743 ft | 142 kts | 137° |
| 2026-04-22 21:06 | 14.58226 | 120.93169 | 1741 ft | 142 kts | 133° |
| 2026-04-22 21:06 | 14.57573 | 120.93928 | 1738 ft | 142 kts | 128° |
| 2026-04-22 21:06 | 14.56959 | 120.94730 | 1560 ft | 141 kts | 123° |
| 2026-04-22 21:07 | 14.56419 | 120.95575 | 1327 ft | 141 kts | 122° |
| 2026-04-22 21:07 | 14.55845 | 120.96385 | 1072 ft | 140 kts | 128° |
| 2026-04-22 21:07 | 14.55231 | 120.97140 | 948 ft | 138 kts | 129° |
| 2026-04-22 21:07 | 14.54618 | 120.97909 | 896 ft | 140 kts | 129° |
| 2026-04-22 21:08 | 14.53996 | 120.98687 | 690 ft | 141 kts | 130° |
| 2026-04-22 21:08 | 14.53311 | 120.99408 | 485 ft | 140 kts | 135° |
| 2026-04-22 21:08 | 14.52611 | 121.00110 | 312 ft | 140 kts | 131° |
| 2026-04-22 21:08 | 14.51954 | 121.00849 | 117 ft | 140 kts | 133° |
| 2026-04-22 21:09 | 14.51279 | 121.01528 | 32 ft | 125 kts | 134° |
| 2026-04-22 21:09 | 14.50911 | 121.01926 | 37 ft | 7 kts | 131° |
| 2026-04-22 21:09 | 14.50908 | 121.01930 | 37 ft | 0 kts | 131° |